Time;durP1;ratioP1;P1;durP2;ratioP2;P2;SDS_P1;SDS_P2;PMS_P1;PMS_P2;Temp;Humidity;BMP_temperature;BMP_pressure;BME280_temperature;BME280_humidity;BME280_pressure;Samples;Min_cycle;Max_cycle;Signal;HPM_P1;HPM_P2
2022/01/21 00:02:11;;;;;;;22.58;3.15;;;;;;;-0.49;97.73;103021.19;4971309;28;20030;-66
2022/01/21 00:04:37;;;;;;;22.38;3.35;;;;;;;-0.57;98.18;103009.44;4982587;28;20511;-66
2022/01/21 00:07:03;;;;;;;23.77;4.22;;;;;;;-0.55;98.18;103016.19;4984990;28;20562;-66
2022/01/21 00:09:29;;;;;;;23.27;3.80;;;;;;;-0.41;98.47;103021.03;4986443;28;20038;-65
2022/01/21 00:11:54;;;;;;;24.70;4.47;;;;;;;-0.38;97.50;103015.84;4991813;28;20452;-66
2022/01/21 00:14:20;;;;;;;29.40;5.20;;;;;;;-0.40;97.30;103012.50;4974548;28;20582;-66
2022/01/21 00:16:46;;;;;;;23.40;4.05;;;;;;;-0.48;97.52;103014.38;4975579;28;20037;-66
2022/01/21 00:19:14;;;;;;;26.83;3.63;;;;;;;-0.49;97.96;103017.75;4989040;28;20034;-66
2022/01/21 00:32:30;;;;;;;24.88;2.97;;;;;;;-0.30;96.90;103020.78;4988888;28;20078;-66
2022/01/21 00:34:56;;;;;;;17.77;2.47;;;;;;;-0.34;96.92;103027.69;4994967;28;20029;-66
2022/01/21 00:37:22;;;;;;;22.23;3.80;;;;;;;-0.33;96.77;103019.16;4974204;28;20080;-66
2022/01/21 00:39:54;;;;;;;25.90;2.92;;;;;;;-0.33;97.31;103025.97;4989002;28;20120;-66
2022/01/21 00:44:53;;;;;;;24.63;2.83;;;;;;;-0.42;97.20;103021.88;4991967;28;20478;-66
2022/01/21 00:47:20;;;;;;;20.17;3.45;;;;;;;-0.35;97.44;103027.72;4986491;28;20507;-66
2022/01/21 00:49:46;;;;;;;11.23;2.63;;;;;;;-0.39;96.90;103026.94;4971188;28;20041;-66
2022/01/21 00:52:11;;;;;;;19.33;2.90;;;;;;;-0.49;97.53;103036.47;4981912;28;20548;-65
2022/01/21 00:54:37;;;;;;;18.45;3.22;;;;;;;-0.53;97.79;103031.44;4988100;28;20042;-66
2022/01/21 00:57:06;;;;;;;28.20;2.97;;;;;;;-0.62;97.67;103038.41;4971488;28;20030;-66
2022/01/21 00:59:32;;;;;;;19.60;2.65;;;;;;;-0.51;97.29;103032.25;4968069;28;20062;-66
2022/01/21 01:01:58;;;;;;;27.42;4.60;;;;;;;-0.47;97.24;103036.41;4969329;28;20121;-66
2022/01/21 01:04:25;;;;;;;27.17;4.07;;;;;;;-0.61;97.64;103050.28;4971592;28;20018;-65
2022/01/21 01:06:51;;;;;;;25.50;3.33;;;;;;;-0.52;97.96;103050.97;4995209;28;20566;-65
2022/01/21 01:09:17;;;;;;;18.98;3.15;;;;;;;-0.57;98.13;103047.66;4956680;28;20030;-65
2022/01/21 01:12:09;;;;;;;17.27;3.40;;;;;;;-0.57;98.00;103048.50;4986069;28;20504;-66
2022/01/21 01:20:07;;;;;;;20.85;3.30;;;;;;;-0.57;98.20;103055.31;4985963;28;20034;-66
2022/01/21 01:27:55;;;;;;;18.73;3.33;;;;;;;-0.50;98.25;103027.13;4984891;28;20034;-66
2022/01/21 01:30:25;;;;;;;31.52;3.50;;;;;;;-0.50;98.51;103021.19;4956013;28;20037;-65
2022/01/21 01:32:54;;;;;;;14.13;2.75;;;;;;;-0.44;98.30;103019.34;4970021;28;20122;-66
2022/01/21 01:35:20;;;;;;;15.02;3.33;;;;;;;-0.45;98.41;103017.69;4986291;28;20097;-66
2022/01/21 01:40:23;;;;;;;19.05;3.30;;;;;;;-0.47;97.93;103024.53;4972495;28;20034;-65
2022/01/21 01:50:47;;;;;;;15.48;4.13;;;;;;;-0.56;98.06;103041.72;5025775;28;20128;-68
2022/01/21 01:53:21;;;;;;;15.57;3.63;;;;;;;-0.48;98.18;103039.84;5020715;28;20418;-68
2022/01/21 01:55:47;;;;;;;20.73;2.95;;;;;;;-0.66;98.41;103039.34;5061011;28;20183;-68
2022/01/21 01:58:14;;;;;;;24.05;4.07;;;;;;;-0.62;98.56;103035.84;5061315;28;20039;-68
2022/01/21 02:00:42;;;;;;;27.42;3.80;;;;;;;-0.59;98.93;103038.34;5046098;28;20040;-68
2022/01/21 02:03:16;;;;;;;14.43;2.92;;;;;;;-0.55;98.36;103028.91;5054758;28;20040;-68
2022/01/21 02:05:43;;;;;;;28.05;3.78;;;;;;;-0.53;98.35;103032.28;5064492;28;20028;-68
2022/01/21 02:08:10;;;;;;;26.70;3.00;;;;;;;-0.59;98.60;103029.84;5043532;28;20501;-68
2022/01/21 02:10:39;;;;;;;11.90;2.47;;;;;;;-0.52;98.35;103022.94;5058298;28;20044;-68
2022/01/21 02:13:17;;;;;;;17.40;3.95;;;;;;;-0.48;98.36;103017.75;5043968;28;20107;-68
2022/01/21 02:21:39;;;;;;;18.70;3.05;;;;;;;-0.62;99.22;103027.38;5044387;28;20573;-68
2022/01/21 02:24:16;;;;;;;32.03;3.55;;;;;;;-0.44;98.86;103026.16;5041347;28;20430;-68
2022/01/21 02:26:43;;;;;;;23.00;3.85;;;;;;;-0.44;98.90;103032.09;5027672;28;20033;-68
2022/01/21 02:29:10;;;;;;;16.40;3.13;;;;;;;-0.47;99.34;103021.97;5031536;28;20524;-68
2022/01/21 02:31:39;;;;;;;19.08;3.00;;;;;;;-0.35;99.32;103028.53;5030901;28;20044;-68
2022/01/21 02:34:06;;;;;;;23.75;4.55;;;;;;;-0.45;99.27;103019.41;5054945;28;20155;-68
2022/01/21 02:36:33;;;;;;;29.42;3.17;;;;;;;-0.49;99.79;103031.38;5061264;28;20037;-68
2022/01/21 02:38:59;;;;;;;23.35;3.40;;;;;;;-0.35;99.58;103022.63;5042519;28;20037;-68
2022/01/21 02:41:25;;;;;;;29.63;2.85;;;;;;;-0.28;99.42;103037.75;5040486;28;20486;-68
2022/01/21 02:43:52;;;;;;;19.52;3.03;;;;;;;-0.19;99.02;103034.16;5040372;28;20527;-68
2022/01/21 02:46:21;;;;;;;23.65;4.20;;;;;;;-0.16;99.21;103036.66;5024629;28;20465;-68
2022/01/21 02:48:47;;;;;;;21.50;3.63;;;;;;;-0.32;99.06;103037.81;5043001;28;20040;-68
2022/01/21 02:51:15;;;;;;;20.65;3.08;;;;;;;-0.20;99.22;103040.16;5036814;28;20041;-68
2022/01/21 02:56:18;;;;;;;21.10;3.08;;;;;;;-0.32;99.31;103033.59;5040341;28;20433;-68
2022/01/21 02:58:46;;;;;;;26.58;3.75;;;;;;;-0.32;98.85;103035.28;5029462;28;20461;-68
2022/01/21 03:01:12;;;;;;;29.88;3.03;;;;;;;-0.44;99.44;103041.47;5042300;28;20082;-68
2022/01/21 03:03:40;;;;;;;24.17;3.42;;;;;;;-0.40;99.18;103045.63;5060298;28;20060;-68
2022/01/21 03:06:09;;;;;;;15.50;3.17;;;;;;;-0.41;99.07;103054.16;5024576;28;20147;-68
2022/01/21 03:08:35;;;;;;;16.85;3.25;;;;;;;-0.40;98.83;103055.84;5061810;28;20032;-68
2022/01/21 03:11:01;;;;;;;24.02;3.28;;;;;;;-0.44;99.07;103049.94;5056091;28;20086;-68
2022/01/21 03:13:26;;;;;;;26.35;3.47;;;;;;;-0.46;98.68;103051.69;5044657;28;20044;-68
2022/01/21 03:15:53;;;;;;;26.73;3.17;;;;;;;-0.54;99.07;103060.38;5041802;28;20075;-68
2022/01/21 03:18:23;;;;;;;17.42;4.07;;;;;;;-0.57;99.39;103061.25;5053963;28;20042;-68
2022/01/21 03:20:49;;;;;;;23.05;4.10;;;;;;;-0.42;99.23;103063.50;5063133;28;20032;-68
2022/01/21 03:23:18;;;;;;;20.13;3.63;;;;;;;-0.51;99.30;103060.28;5045176;28;20032;-68
2022/01/21 03:25:48;;;;;;;22.83;2.78;;;;;;;-0.50;99.32;103055.16;5037677;28;20028;-68
2022/01/21 03:28:15;;;;;;;34.92;3.03;;;;;;;-0.49;99.16;103061.09;5061935;28;20530;-68
2022/01/21 03:30:45;;;;;;;19.58;3.17;;;;;;;-0.55;98.74;103056.13;5038174;28;20587;-67
2022/01/21 03:33:13;;;;;;;18.48;3.60;;;;;;;-0.49;99.33;103051.78;5060645;28;20103;-68
2022/01/21 03:35:42;;;;;;;24.23;3.40;;;;;;;-0.61;99.05;103057.91;5061320;28;20072;-68
2022/01/21 03:38:08;;;;;;;25.73;4.43;;;;;;;-0.51;99.36;103058.59;5059607;28;20037;-67
2022/01/21 03:40:35;;;;;;;21.15;3.47;;;;;;;-0.43;99.05;103053.34;5037658;28;20029;-68
2022/01/21 03:43:01;;;;;;;12.98;3.17;;;;;;;-0.40;98.56;103059.25;5061599;28;20033;-68
2022/01/21 03:45:27;;;;;;;18.90;3.22;;;;;;;-0.35;98.45;103068.50;5060096;28;20044;-68
2022/01/21 03:47:53;;;;;;;23.10;3.63;;;;;;;-0.34;98.55;103065.06;5057704;28;20039;-68
2022/01/21 03:50:32;;;;;;;22.15;4.18;;;;;;;-0.28;98.30;103058.16;5028492;28;20047;-68
2022/01/21 03:53:01;;;;;;;23.65;3.03;;;;;;;-0.30;98.19;103051.38;5036330;28;20044;-68
2022/01/21 03:55:31;;;;;;;32.80;5.70;;;;;;;-0.20;98.10;103058.00;5034376;28;20044;-68
2022/01/21 03:57:58;;;;;;;36.30;9.32;;;;;;;-0.17;98.51;103049.44;5036817;28;20106;-68
2022/01/21 04:00:34;;;;;;;59.85;14.35;;;;;;;-0.25;98.37;103047.88;5041559;28;20104;-68
2022/01/21 04:03:03;;;;;;;92.68;32.20;;;;;;;-0.17;98.76;103054.53;5061271;28;20043;-68
2022/01/21 04:05:34;;;;;;;44.88;13.35;;;;;;;-0.07;98.73;103054.31;5043731;28;20036;-68
2022/01/21 04:08:03;;;;;;;26.50;6.30;;;;;;;0.00;99.00;103049.94;5044439;28;20033;-68
2022/01/21 04:10:29;;;;;;;38.10;7.85;;;;;;;-0.05;98.92;103049.19;5022305;28;20041;-68
2022/01/21 04:12:55;;;;;;;28.92;6.22;;;;;;;-0.12;99.27;103051.03;5059196;28;20066;-68
2022/01/21 04:15:22;;;;;;;25.05;5.78;;;;;;;-0.11;99.04;103059.53;5061179;28;20354;-68
2022/01/21 04:17:48;;;;;;;31.02;7.78;;;;;;;-0.15;99.31;103066.41;5041134;28;20036;-68
2022/01/21 04:20:18;;;;;;;30.70;6.70;;;;;;;-0.09;99.19;103066.28;5035320;28;20554;-68
2022/01/21 04:22:43;;;;;;;29.10;7.20;;;;;;;-0.04;99.11;103061.06;5041593;28;20028;-68
2022/01/21 04:25:09;;;;;;;25.88;7.30;;;;;;;-0.03;98.33;103057.66;5045572;28;20847;-68
2022/01/21 04:27:36;;;;;;;45.80;17.95;;;;;;;-0.05;98.03;103056.84;5048424;28;20036;-68
2022/01/21 04:30:03;;;;;;;27.15;8.05;;;;;;;-0.10;98.59;103067.13;5046830;28;20028;-68
2022/01/21 04:32:30;;;;;;;25.48;4.93;;;;;;;-0.21;98.45;103053.75;5060415;28;20530;-68
2022/01/21 04:34:57;;;;;;;20.67;6.80;;;;;;;-0.15;98.83;103048.56;5058489;28;20051;-68
2022/01/21 04:37:23;;;;;;;20.80;4.72;;;;;;;-0.22;98.54;103052.91;5064100;28;20037;-68
2022/01/21 04:40:01;;;;;;;30.60;5.22;;;;;;;-0.14;98.63;103044.28;5059947;28;20028;-68
2022/01/21 04:47:56;;;;;;;22.50;5.00;;;;;;;-0.24;97.96;103057.22;5043114;28;20452;-68
2022/01/21 04:50:25;;;;;;;30.95;4.05;;;;;;;-0.32;98.19;103059.09;5058250;28;20476;-68
2022/01/21 04:52:53;;;;;;;23.10;4.18;;;;;;;-0.39;98.01;103057.53;5059826;28;20033;-68
2022/01/21 04:55:43;;;;;;;19.95;4.88;;;;;;;-0.46;98.82;103061.88;5035046;28;20147;-68
2022/01/21 04:58:09;;;;;;;23.95;3.90;;;;;;;-0.36;99.00;103067.66;5065162;28;20039;-68
2022/01/21 05:00:36;;;;;;;25.42;3.70;;;;;;;-0.42;98.53;103062.66;5041269;28;20036;-68
2022/01/21 05:03:04;;;;;;;22.48;3.67;;;;;;;-0.46;98.88;103061.06;5041578;28;20139;-68
2022/01/21 05:05:31;;;;;;;26.48;5.03;;;;;;;-0.49;99.37;103063.66;5063604;28;20112;-68
2022/01/21 05:08:00;;;;;;;27.70;4.90;;;;;;;-0.40;99.33;103060.94;5041918;28;20028;-68
2022/01/21 05:10:27;;;;;;;24.33;3.92;;;;;;;-0.35;98.77;103060.84;5031599;28;20028;-68
2022/01/21 05:12:54;;;;;;;23.42;4.28;;;;;;;-0.29;98.52;103059.00;5042270;28;20040;-68
2022/01/21 05:15:31;;;;;;;19.85;4.18;;;;;;;-0.36;98.63;103062.53;5044927;28;20067;-68
2022/01/21 05:17:58;;;;;;;21.02;5.13;;;;;;;-0.32;98.53;103061.63;5040098;28;20043;-68
2022/01/21 05:20:37;;;;;;;21.17;4.00;;;;;;;-0.37;98.36;103050.69;5041665;28;20048;-68
2022/01/21 05:23:23;;;;;;;20.48;4.13;;;;;;;-0.31;98.37;103055.66;5061988;28;20517;-68
2022/01/21 05:25:49;;;;;;;19.80;4.53;;;;;;;-0.36;98.22;103057.44;5022459;28;20035;-68
2022/01/21 05:28:15;;;;;;;12.43;3.35;;;;;;;-0.43;98.54;103056.75;5038263;28;20060;-68
2022/01/21 05:31:04;;;;;;;22.10;4.10;;;;;;;-0.39;98.28;103062.63;5049212;28;20198;-68
2022/01/21 05:33:49;;;;;;;17.77;3.15;;;;;;;-0.47;98.15;103065.31;5058469;28;20033;-68
2022/01/21 05:36:37;;;;;;;27.40;3.95;;;;;;;-0.49;97.99;103064.50;5044401;28;20029;-68
2022/01/21 05:39:23;;;;;;;12.30;3.63;;;;;;;-0.49;98.48;103071.28;5060839;28;20040;-68
2022/01/21 05:42:10;;;;;;;17.38;3.70;;;;;;;-0.44;97.72;103077.16;5063672;28;20103;-68
2022/01/21 05:48:10;;;;;;;15.27;3.60;;;;;;;-0.48;97.85;103068.72;5061313;28;20044;-68
2022/01/21 05:50:54;;;;;;;22.60;4.00;;;;;;;-0.54;97.86;103063.75;5043125;28;20387;-68
2022/01/21 05:53:40;;;;;;;22.45;4.38;;;;;;;-0.54;97.93;103065.47;5037238;28;20363;-68
2022/01/21 05:56:24;;;;;;;30.30;4.85;;;;;;;-0.56;97.90;103072.31;5042401;28;20039;-67
2022/01/21 05:59:02;;;;;;;16.23;4.00;;;;;;;-0.59;98.26;103075.72;5047044;28;20032;-68
2022/01/21 06:01:27;;;;;;;23.25;3.90;;;;;;;-0.60;98.19;103069.81;5025472;28;20083;-68
2022/01/21 06:03:54;;;;;;;24.65;4.97;;;;;;;-0.56;98.57;103067.22;5044052;28;20429;-68
2022/01/21 06:06:20;;;;;;;20.92;4.40;;;;;;;-0.67;98.20;103063.13;5057889;28;20111;-68
2022/01/21 06:08:45;;;;;;;19.30;4.40;;;;;;;-0.68;98.89;103071.66;5054515;28;20036;-68
2022/01/21 06:11:11;;;;;;;23.88;4.05;;;;;;;-0.68;98.59;103065.69;5041532;28;20035;-68
2022/01/21 06:13:37;;;;;;;29.15;4.88;;;;;;;-0.70;99.16;103065.72;5043378;28;20086;-68
2022/01/21 06:16:04;;;;;;;19.15;3.97;;;;;;;-0.79;99.41;103087.13;5045731;28;20041;-68
2022/01/21 06:18:29;;;;;;;16.10;3.78;;;;;;;-0.88;99.02;103094.09;5059997;28;20067;-68
2022/01/21 06:20:55;;;;;;;12.18;4.18;;;;;;;-0.87;99.06;103094.03;5059165;28;20360;-68
2022/01/21 06:23:21;;;;;;;18.95;4.07;;;;;;;-0.91;99.88;103096.69;5061231;28;20098;-68
2022/01/21 06:25:46;;;;;;;22.88;5.30;;;;;;;-0.89;100.00;103094.94;5037139;28;20123;-68
2022/01/21 06:28:13;;;;;;;23.40;5.70;;;;;;;-0.77;100.00;103107.50;5061051;28;20038;-68
2022/01/21 06:30:39;;;;;;;27.25;4.10;;;;;;;-0.78;99.92;103103.25;5045766;28;20032;-68
2022/01/21 06:33:05;;;;;;;20.63;4.25;;;;;;;-0.83;100.00;103103.34;5060743;28;20063;-68
2022/01/21 06:35:31;;;;;;;23.88;5.70;;;;;;;-0.83;99.94;103105.88;5061517;28;20032;-68
2022/01/21 06:37:57;;;;;;;30.15;4.32;;;;;;;-0.71;100.00;103109.09;5057830;28;20036;-68
2022/01/21 06:40:23;;;;;;;21.65;3.90;;;;;;;-0.57;99.65;103103.75;5041131;28;20139;-68
2022/01/21 06:42:50;;;;;;;26.55;4.45;;;;;;;-0.65;99.55;103111.53;5041196;28;20068;-68
2022/01/21 06:45:20;;;;;;;21.42;4.18;;;;;;;-0.66;99.85;103114.94;5044873;28;20086;-68
2022/01/21 06:47:46;;;;;;;27.65;5.15;;;;;;;-0.67;99.44;103114.09;5030320;28;20105;-68
2022/01/21 06:50:12;;;;;;;19.63;4.10;;;;;;;-0.66;99.98;103120.88;5062069;28;20121;-68
2022/01/21 06:52:38;;;;;;;17.40;4.35;;;;;;;-0.69;99.56;103115.00;5057955;28;20037;-68
2022/01/21 06:55:05;;;;;;;16.60;3.63;;;;;;;-0.77;99.66;103122.78;5058920;28;20537;-68
2022/01/21 06:57:30;;;;;;;17.83;4.60;;;;;;;-0.73;100.00;103121.03;5043506;28;20063;-68
2022/01/21 06:59:57;;;;;;;27.08;4.85;;;;;;;-0.77;99.83;103132.09;5060770;28;20518;-68
2022/01/21 07:02:23;;;;;;;25.88;4.55;;;;;;;-0.71;99.30;103126.94;5038276;28;20636;-68
2022/01/21 07:04:52;;;;;;;30.13;4.70;;;;;;;-0.73;99.83;103133.75;5045499;28;20051;-68
2022/01/21 07:07:18;;;;;;;19.48;4.15;;;;;;;-0.79;99.48;103132.16;5054600;28;20029;-68
2022/01/21 07:09:44;;;;;;;21.33;4.57;;;;;;;-0.71;99.34;103127.75;5062100;28;20454;-68
2022/01/21 07:12:10;;;;;;;15.80;3.63;;;;;;;-0.69;99.16;103131.13;5060580;28;20028;-68
2022/01/21 07:14:36;;;;;;;16.13;3.70;;;;;;;-0.76;99.59;103128.72;5037691;28;20036;-68
2022/01/21 07:17:02;;;;;;;22.15;4.20;;;;;;;-0.78;99.70;103131.28;5030368;28;20067;-68
2022/01/21 07:19:28;;;;;;;17.25;4.93;;;;;;;-0.87;99.95;103128.88;5063799;28;20117;-68
2022/01/21 07:21:53;;;;;;;23.45;4.97;;;;;;;-0.80;99.92;103125.38;5061037;28;20037;-68
2022/01/21 07:24:19;;;;;;;21.08;4.13;;;;;;;-0.68;99.97;103124.31;5055364;28;20611;-68
2022/01/21 07:26:45;;;;;;;16.05;4.47;;;;;;;-0.75;99.52;103121.03;5051606;28;20056;-68
2022/01/21 07:29:10;;;;;;;20.63;4.63;;;;;;;-0.67;99.61;103120.91;5041572;28;20029;-68
2022/01/21 07:31:36;;;;;;;22.65;3.97;;;;;;;-0.73;99.62;103129.50;5062112;28;20115;-68
2022/01/21 07:34:06;;;;;;;25.52;4.38;;;;;;;-0.81;99.86;103133.88;5060845;28;20044;-68
2022/01/21 07:36:32;;;;;;;18.08;4.18;;;;;;;-0.72;99.86;103140.53;5041023;28;20037;-68
2022/01/21 07:38:58;;;;;;;19.90;4.93;;;;;;;-0.72;99.90;103140.53;5037972;28;20036;-68
2022/01/21 07:41:24;;;;;;;24.13;4.20;;;;;;;-0.82;99.78;103145.78;5026946;28;20040;-68
2022/01/21 07:43:52;;;;;;;17.45;4.15;;;;;;;-0.81;99.68;103144.91;5039996;28;20044;-68
2022/01/21 07:46:18;;;;;;;22.80;3.95;;;;;;;-0.70;99.85;103147.28;5040144;23;20100;-68
2022/01/21 07:48:44;;;;;;;14.75;3.55;;;;;;;-0.63;99.66;103160.75;5024474;28;20406;-68
2022/01/21 07:51:09;;;;;;;19.48;5.07;;;;;;;-0.61;99.77;103172.59;5021546;28;20415;-68
2022/01/21 07:53:35;;;;;;;21.80;6.22;;;;;;;-0.51;99.83;103175.00;5007259;28;20087;-67
2022/01/21 07:56:02;;;;;;;20.73;4.80;;;;;;;-0.54;99.76;103177.63;5034252;28;20056;-68
2022/01/21 07:58:28;;;;;;;18.05;4.28;;;;;;;-0.56;99.56;103181.91;5025861;28;20049;-68
2022/01/21 08:00:53;;;;;;;23.10;4.35;;;;;;;-0.62;99.65;103176.03;5045907;28;20068;-68
2022/01/21 08:03:20;;;;;;;15.13;4.15;;;;;;;-0.47;100.00;103189.38;5046735;28;20476;-68
2022/01/21 08:05:46;;;;;;;17.88;4.72;;;;;;;-0.54;100.00;103185.28;5024671;28;20046;-68
2022/01/21 08:08:13;;;;;;;27.00;5.50;;;;;;;-0.55;100.00;103181.84;5029909;28;20044;-68
2022/01/21 08:10:38;;;;;;;10.93;4.63;;;;;;;-0.47;100.00;103181.72;5046168;28;20577;-67
2022/01/21 08:13:04;;;;;;;14.13;5.00;;;;;;;-0.53;100.00;103181.84;5031053;28;20108;-68
2022/01/21 08:15:33;;;;;;;23.67;4.47;;;;;;;-0.60;100.00;103174.31;5045298;28;20032;-68
2022/01/21 08:17:59;;;;;;;19.75;4.78;;;;;;;-0.57;100.00;103160.66;5029967;28;20052;-68
2022/01/21 08:20:29;;;;;;;19.88;5.30;;;;;;;-0.54;100.00;103158.06;5030202;28;20024;-68
2022/01/21 08:22:55;;;;;;;18.50;4.80;;;;;;;-0.49;100.00;103160.53;5046648;28;20033;-68
2022/01/21 08:25:21;;;;;;;13.35;4.18;;;;;;;-0.40;100.00;103150.16;5026293;28;20402;-68
2022/01/21 08:27:47;;;;;;;26.67;4.95;;;;;;;-0.34;100.00;103144.13;5039138;28;20060;-67
2022/01/21 08:30:17;;;;;;;20.42;4.70;;;;;;;-0.34;99.90;103139.88;5047315;28;20036;-67
2022/01/21 08:32:43;;;;;;;17.15;4.85;;;;;;;-0.39;99.76;103151.84;5042118;28;20095;-67
2022/01/21 08:35:10;;;;;;;19.13;4.75;;;;;;;-0.33;99.96;103140.72;5030137;28;20048;-68
2022/01/21 08:37:36;;;;;;;19.92;4.85;;;;;;;-0.36;100.00;103153.50;5045005;28;20036;-68
2022/01/21 08:40:03;;;;;;;22.02;4.72;;;;;;;-0.33;99.95;103144.09;5034355;28;20026;-68
2022/01/21 08:42:29;;;;;;;19.65;4.35;;;;;;;-0.14;99.75;103146.31;5013483;28;20060;-68
2022/01/21 08:44:54;;;;;;;20.25;5.70;;;;;;;-0.24;99.72;103153.28;5030539;28;20051;-68
2022/01/21 08:47:21;;;;;;;21.00;4.88;;;;;;;-0.14;99.92;103156.50;5026195;28;20696;-67
2022/01/21 08:49:49;;;;;;;18.80;4.60;;;;;;;-0.13;100.00;103160.72;5036016;28;20401;-68
2022/01/21 08:52:20;;;;;;;14.00;4.85;;;;;;;-0.07;99.80;103158.91;5061381;28;20172;-68
2022/01/21 08:54:50;;;;;;;15.40;3.83;;;;;;;-0.06;100.00;103154.63;5072880;28;20150;-68
2022/01/21 08:57:16;;;;;;;20.35;4.47;;;;;;;0.03;99.17;103157.00;5025272;28;20158;-68
2022/01/21 08:59:42;;;;;;;16.48;4.40;;;;;;;0.02;99.42;103150.25;5051408;28;20042;-68
2022/01/21 09:02:09;;;;;;;18.58;4.55;;;;;;;0.08;98.91;103152.66;5030024;28;20045;-68
2022/01/21 09:04:35;;;;;;;13.18;4.53;;;;;;;0.04;99.71;103157.84;5034254;28;20048;-68
2022/01/21 09:07:02;;;;;;;18.65;4.82;;;;;;;0.08;98.93;103162.88;5034501;28;20374;-68
2022/01/21 09:09:28;;;;;;;17.45;5.22;;;;;;;0.09;99.36;103164.53;5052608;28;20045;-68
2022/01/21 09:11:59;;;;;;;29.00;8.02;;;;;;;0.19;99.66;103160.94;5031267;28;20055;-68
2022/01/21 09:14:29;;;;;;;24.48;5.90;;;;;;;0.33;99.17;103165.75;5048147;28;20033;-68
2022/01/21 09:16:56;;;;;;;34.20;10.77;;;;;;;0.38;98.43;103166.53;5028254;28;20577;-68
2022/01/21 09:19:23;;;;;;;15.52;5.65;;;;;;;0.38;98.32;103160.59;5032243;28;20032;-67
2022/01/21 09:21:51;;;;;;;25.90;9.38;;;;;;;0.34;97.95;103159.81;5048204;28;20052;-67
2022/01/21 09:24:20;;;;;;;23.35;5.93;;;;;;;0.35;98.83;103160.63;5045830;28;20032;-67
2022/01/21 09:26:46;;;;;;;24.08;6.63;;;;;;;0.38;98.02;103160.59;5031787;28;20032;-67
2022/01/21 09:29:12;;;;;;;18.45;4.95;;;;;;;0.51;98.08;103171.34;5025377;28;20089;-67
2022/01/21 09:31:38;;;;;;;18.30;5.10;;;;;;;0.55;98.29;103175.53;5047306;28;20040;-68
2022/01/21 09:34:08;;;;;;;18.10;5.38;;;;;;;0.56;97.58;103175.47;5025196;28;20056;-67
2022/01/21 09:36:33;;;;;;;21.70;5.03;;;;;;;0.57;97.47;103181.47;5031437;28;20028;-68
2022/01/21 09:39:00;;;;;;;21.08;5.28;;;;;;;0.60;97.65;103181.38;5040023;28;20146;-67
2022/01/21 09:41:29;;;;;;;21.10;5.25;;;;;;;0.65;97.57;103186.41;5032526;28;20123;-67
2022/01/21 09:43:55;;;;;;;22.15;5.15;;;;;;;0.74;96.94;103184.47;5045694;28;20039;-68
2022/01/21 09:46:31;;;;;;;16.08;5.20;;;;;;;0.74;97.16;103178.53;5038852;28;20052;-67
2022/01/21 09:49:09;;;;;;;25.83;6.22;;;;;;;0.68;97.53;103179.50;5048924;28;20033;-67
2022/01/21 09:51:36;;;;;;;25.52;7.32;;;;;;;0.77;97.51;103181.00;5029986;28;20116;-67
2022/01/21 09:54:09;;;;;;;17.67;6.35;;;;;;;0.87;97.54;103179.09;5048414;28;20262;-67
2022/01/21 09:56:38;;;;;;;18.02;6.38;;;;;;;0.92;97.33;103178.13;5032946;28;20044;-67
2022/01/21 09:59:04;;;;;;;19.02;6.07;;;;;;;1.15;96.94;103174.19;5044675;28;20162;-67
2022/01/21 10:01:30;;;;;;;21.58;6.80;;;;;;;1.20;96.46;103174.91;5020566;28;20055;-68
2022/01/21 10:03:57;;;;;;;23.40;6.40;;;;;;;1.24;96.01;103173.09;5027632;28;20040;-67
2022/01/21 10:06:27;;;;;;;19.50;8.00;;;;;;;1.29;95.79;103169.56;5032236;28;20029;-67
2022/01/21 10:08:55;;;;;;;20.48;6.68;;;;;;;1.32;95.52;103166.94;5028588;28;20032;-68
2022/01/21 10:11:21;;;;;;;23.92;6.03;;;;;;;1.31;95.28;103174.66;5039969;28;20155;-68
2022/01/21 10:13:48;;;;;;;19.20;6.63;;;;;;;1.27;95.41;103176.44;5026058;28;20055;-68
2022/01/21 10:16:13;;;;;;;23.98;7.35;;;;;;;1.31;95.33;103165.25;5036800;28;20043;-68
2022/01/21 10:18:58;;;;;;;27.98;7.38;;;;;;;1.37;95.47;103169.38;5038261;28;20040;-68
2022/01/21 10:21:35;;;;;;;19.42;6.80;;;;;;;1.17;95.77;103183.50;5044516;28;20033;-68
2022/01/21 10:24:14;;;;;;;21.27;6.88;;;;;;;1.25;96.37;103192.69;5026042;28;20036;-68
2022/01/21 10:26:51;;;;;;;20.73;6.63;;;;;;;1.35;96.39;103196.69;5028473;28;20033;-68
2022/01/21 10:29:25;;;;;;;22.20;6.72;;;;;;;1.39;96.10;103192.34;5022518;28;20088;-68
2022/01/21 10:31:55;;;;;;;24.00;7.95;;;;;;;1.44;96.12;103193.91;5052018;28;20028;-68
2022/01/21 10:34:36;;;;;;;44.35;17.80;;;;;;;1.52;96.18;103206.50;5023516;28;20456;-68
2022/01/21 10:37:08;;;;;;;116.53;34.53;;;;;;;1.76;95.40;103199.94;5045764;28;20041;-68
2022/01/21 10:40:00;;;;;;;193.07;60.00;;;;;;;1.75;95.56;103196.53;5038734;28;20040;-68
2022/01/21 10:42:27;;;;;;;90.50;33.30;;;;;;;1.87;95.22;103197.09;5043246;28;20037;-68
2022/01/21 10:44:53;;;;;;;235.98;69.28;;;;;;;1.83;94.92;103200.59;5042868;28;20043;-68
2022/01/21 10:47:26;;;;;;;237.57;74.78;;;;;;;1.77;95.29;103193.91;5047224;28;20055;-68
2022/01/21 10:50:22;;;;;;;126.22;41.65;;;;;;;1.71;95.21;103206.88;5029491;28;20143;-68
2022/01/21 10:52:52;;;;;;;77.38;26.77;;;;;;;1.74;95.73;103197.41;5027100;28;20045;-68
2022/01/21 10:55:30;;;;;;;303.88;109.45;;;;;;;1.91;95.20;103201.25;5030964;28;20041;-68
2022/01/21 10:58:24;;;;;;;69.50;26.08;;;;;;;1.98;95.47;103194.22;5030492;28;20029;-67
2022/01/21 11:01:13;;;;;;;82.00;31.30;;;;;;;2.12;95.49;103184.47;5007677;28;20136;-68
2022/01/21 11:04:05;;;;;;;40.47;17.13;;;;;;;2.19;95.08;103180.84;5041176;28;20095;-68
2022/01/21 11:06:41;;;;;;;68.57;32.65;;;;;;;2.24;94.54;103184.13;5035885;28;20061;-68
2022/01/21 11:09:21;;;;;;;23.35;9.90;;;;;;;2.33;94.51;103180.44;5043257;28;20033;-68
2022/01/21 11:12:05;;;;;;;27.92;10.80;;;;;;;2.29;94.89;103176.31;5025274;28;20071;-68
2022/01/21 11:14:31;;;;;;;41.75;22.30;;;;;;;2.38;95.29;103175.22;5006570;28;20803;-68
2022/01/21 11:17:12;;;;;;;39.88;18.48;;;;;;;2.46;94.97;103173.25;5019498;28;20128;-68
2022/01/21 11:19:38;;;;;;;61.22;24.70;;;;;;;2.57;94.67;103160.97;5012247;28;20059;-67
2022/01/21 11:22:08;;;;;;;51.03;25.20;;;;;;;2.52;94.95;103171.38;5025972;28;20574;-68
2022/01/21 11:24:34;;;;;;;25.60;10.82;;;;;;;2.62;94.68;103166.81;5028779;28;20491;-68
2022/01/21 11:27:11;;;;;;;24.30;7.68;;;;;;;2.65;94.28;103161.56;5032835;28;20510;-68
2022/01/21 11:29:41;;;;;;;18.65;7.57;;;;;;;2.77;94.12;103150.13;5045800;28;20032;-68
2022/01/21 11:32:07;;;;;;;12.70;6.25;;;;;;;2.76;94.17;103151.00;5046741;28;20081;-68
2022/01/21 11:34:34;;;;;;;21.92;6.30;;;;;;;2.91;93.51;103142.00;5013128;28;20038;-67
2022/01/21 11:37:00;;;;;;;20.45;6.88;;;;;;;2.94;93.11;103136.78;5041703;28;20087;-68
2022/01/21 11:39:27;;;;;;;14.15;6.63;;;;;;;2.96;93.37;103135.00;5028789;28;20029;-68
2022/01/21 11:41:58;;;;;;;16.52;5.65;;;;;;;3.03;92.67;103120.25;5045283;28;20047;-68
2022/01/21 11:44:26;;;;;;;19.33;6.18;;;;;;;3.05;92.61;103124.44;5044638;28;20498;-68
2022/01/21 11:47:15;;;;;;;19.90;5.72;;;;;;;3.08;92.35;103129.47;5024242;28;20163;-68
2022/01/21 11:49:58;;;;;;;21.23;6.68;;;;;;;3.16;91.91;103121.50;5040565;28;20037;-68
2022/01/21 11:52:24;;;;;;;13.45;5.13;;;;;;;3.21;91.42;103117.06;5046054;28;20517;-68
2022/01/21 11:54:50;;;;;;;22.63;5.43;;;;;;;3.23;91.48;103110.16;5041949;28;20406;-68
2022/01/21 11:57:27;;;;;;;15.57;5.55;;;;;;;3.31;91.17;103108.19;5016058;28;20032;-68
2022/01/21 12:00:02;;;;;;;19.30;5.40;;;;;;;3.26;91.42;103107.50;5039612;28;20143;-68
2022/01/21 12:02:33;;;;;;;16.80;6.05;;;;;;;3.43;91.16;103114.63;5019938;28;20103;-68
2022/01/21 12:05:07;;;;;;;22.33;5.93;;;;;;;3.56;91.10;103109.06;5037084;28;20513;-68
2022/01/21 12:07:44;;;;;;;23.13;5.50;;;;;;;3.44;90.72;103110.31;5011477;28;20125;-69
2022/01/21 12:10:18;;;;;;;17.20;5.10;;;;;;;3.55;90.73;103102.25;5036551;28;20097;-68
2022/01/21 12:13:00;;;;;;;16.92;5.82;;;;;;;3.61;90.42;103105.44;5025719;28;20041;-68
2022/01/21 12:16:22;;;;;;;20.02;4.97;;;;;;;3.77;91.12;103103.16;5036480;28;20044;-67
2022/01/21 12:19:08;;;;;;;15.07;6.03;;;;;;;3.80;90.56;103097.91;5034478;28;20051;-68
2022/01/21 12:21:27;;;;;;;24.23;8.40;;;;;;;3.94;90.21;103102.56;5019801;28;20592;-68
2022/01/21 12:23:57;;;;;;;20.50;5.22;;;;;;;3.97;89.67;103102.44;5024240;28;20068;-67